Fountain Valley, California
Current Conditions -  °F | °C
As of 8:53 AM on Saturday 22 Nov 2014 (Local Time) from KSNA Reporting Station
Few Clouds Few Clouds  
Wind Chill: 65°   Ceiling: Unl
Heat Index: 65°   Visibility: 10mi
Dew Point: 51°   Wind: 0mph
Humidity: 61%   Direction: NA
Pressure: 30.11"   Gusts: NA
Location:  33.71°N, 117.95°W
Report Text: KSNA 221653Z 00000KT 10SM FEW042 18/11 A3011 RMK AO2 SLP194 T01830106
Loading
Personal Weather Stations






























Interactive Weather Map New forecast layout! Learn more

10-Day Weather Forecast

Advertisements
Track Severe Weather on mobile